Time;durP1;ratioP1;P1;durP2;ratioP2;P2;SDS_P1;SDS_P2;PMS_P1;PMS_P2;Temp;Humidity;BMP_temperature;BMP_pressure;BME280_temperature;BME280_humidity;BME280_pressure;Samples;Min_cycle;Max_cycle;Signal;HPM_P1;HPM_P2
2023/04/03 15:07:57;;;;;;;2.20;1.80;;;14.10;99.90;;;;;;4894919;24;20555;-92
2023/04/03 15:10:30;;;;;;;3.23;2.47;;;14.10;99.90;;;;;;4770150;30;20466;-95
2023/04/03 15:12:56;;;;;;;5.27;2.93;;;14.10;99.90;;;;;;4770622;30;20558;-92
2023/04/03 15:15:23;;;;;;;3.30;2.57;;;14.10;99.90;;;;;;4768314;30;20998;-95
2023/04/03 15:17:54;;;;;;;2.40;2.20;;;14.00;99.90;;;;;;4768396;30;20558;-94
2023/04/03 15:20:23;;;;;;;2.67;2.30;;;14.00;99.90;;;;;;4778789;29;20436;-92
2023/04/03 15:22:49;;;;;;;3.00;2.60;;;13.90;99.90;;;;;;4772650;30;20463;-94
2023/04/03 15:25:15;;;;;;;2.33;1.90;;;13.90;99.90;;;;;;4769501;30;20870;-96
2023/04/03 15:27:41;;;;;;;3.03;2.10;;;13.80;99.90;;;;;;4768623;30;20467;-96
2023/04/03 15:30:12;;;;;;;2.20;2.00;;;13.80;99.90;;;;;;4769895;30;20438;-96
2023/04/03 15:32:39;;;;;;;3.60;2.43;;;13.70;99.90;;;;;;4770780;30;20992;-94
2023/04/03 15:35:05;;;;;;;6.47;2.90;;;13.70;99.90;;;;;;4771288;30;20500;-94
2023/04/03 15:37:31;;;;;;;3.87;2.97;;;13.70;99.90;;;;;;4773007;30;20471;-94
2023/04/03 15:39:57;;;;;;;4.20;2.77;;;13.70;99.90;;;;;;4774364;30;20432;-93
2023/04/03 15:42:26;;;;;;;2.20;2.00;;;13.70;99.90;;;;;;4773789;30;20218;-94
2023/04/03 15:44:52;;;;;;;3.53;2.47;;;13.80;99.90;;;;;;4773982;30;20719;-96
2023/04/03 15:47:18;;;;;;;3.53;2.27;;;13.80;99.90;;;;;;4773718;30;20463;-95
2023/04/03 15:49:43;;;;;;;5.17;1.70;;;13.80;99.90;;;;;;4774012;30;20322;-94
2023/04/03 15:52:09;;;;;;;7.07;5.40;;;13.80;99.90;;;;;;4773612;30;20474;-94
2023/04/03 15:54:35;;;;;;;5.40;3.77;;;13.80;99.90;;;;;;4771354;30;20192;-93
2023/04/03 15:57:01;;;;;;;7.87;4.37;;;13.80;99.90;;;;;;4773933;30;20711;-96
2023/04/03 15:59:28;;;;;;;6.20;4.20;;;13.70;99.90;;;;;;4774261;30;20244;-96
2023/04/03 16:01:54;;;;;;;5.90;3.33;;;13.70;99.90;;;;;;4775861;30;20561;-96
2023/04/03 16:04:21;;;;;;;3.53;2.70;;;13.70;99.90;;;;;;4778538;30;20427;-94
2023/04/03 16:06:47;;;;;;;6.40;5.40;;;13.70;99.90;;;;;;4787693;30;20468;-93
2023/04/03 16:09:13;;;;;;;6.37;4.03;;;13.60;99.90;;;;;;4781663;30;20444;-96
2023/04/03 16:11:45;;;;;;;7.57;2.60;;;13.60;99.90;;;;;;4774252;30;20922;-96
2023/04/03 16:14:11;;;;;;;3.70;2.80;;;13.60;99.90;;;;;;4771798;30;20444;-96
2023/04/03 16:16:41;;;;;;;5.17;3.57;;;13.50;99.90;;;;;;4773298;30;20666;-96
2023/04/03 16:19:11;;;;;;;5.00;2.77;;;13.40;99.90;;;;;;4772664;30;20440;-96
2023/04/03 16:21:36;;;;;;;4.43;2.70;;;13.40;99.90;;;;;;4771881;30;20470;-93
2023/04/03 16:24:03;;;;;;;5.13;2.60;;;13.20;99.90;;;;;;4772910;30;20428;-96
2023/04/03 16:26:29;;;;;;;6.03;3.50;;;13.20;99.90;;;;;;4771386;30;20551;-95
2023/04/03 16:28:55;;;;;;;4.27;2.97;;;13.10;99.90;;;;;;4772161;30;20849;-96
2023/04/03 16:31:21;;;;;;;4.63;3.30;;;13.00;99.90;;;;;;4776472;30;20479;-96
2023/04/03 16:33:47;;;;;;;5.93;3.53;;;13.00;99.90;;;;;;4776660;30;20428;-96
2023/04/03 16:36:13;;;;;;;4.83;3.30;;;12.90;99.90;;;;;;4776276;30;20827;-96
2023/04/03 16:38:39;;;;;;;5.53;3.70;;;12.80;99.90;;;;;;4776573;30;20424;-93
2023/04/03 16:41:05;;;;;;;7.37;3.80;;;12.80;99.90;;;;;;4776889;30;20311;-94
2023/04/03 16:43:32;;;;;;;6.60;3.57;;;12.70;99.90;;;;;;4776370;30;20460;-94
2023/04/03 16:45:58;;;;;;;5.40;3.80;;;12.60;99.90;;;;;;4775646;30;20235;-96
2023/04/03 16:48:25;;;;;;;7.70;4.90;;;12.50;99.90;;;;;;4776645;30;20179;-95
2023/04/03 16:50:53;;;;;;;11.57;3.28;;;12.40;99.90;;;;;;4776366;30;20236;-94
2023/04/03 16:53:20;;;;;;;6.27;2.70;;;12.40;99.90;;;;;;4776289;30;20558;-96
2023/04/03 16:55:46;;;;;;;7.37;3.53;;;12.40;99.90;;;;;;4776256;30;20578;-96
2023/04/03 16:58:12;;;;;;;7.82;3.70;;;12.30;99.90;;;;;;4761595;30;20443;-96
2023/04/03 17:00:37;;;;;;;5.63;2.40;;;12.30;99.90;;;;;;4783030;30;20259;-93
2023/04/03 17:03:03;;;;;;;5.77;2.90;;;12.30;99.90;;;;;;4792468;30;20196;-96
2023/04/03 17:05:29;;;;;;;2.83;2.45;;;12.20;99.90;;;;;;4787996;30;20223;-93
2023/04/03 17:07:57;;;;;;;3.03;2.53;;;12.20;99.90;;;;;;4787289;30;20284;-94
2023/04/03 17:10:23;;;;;;;2.88;2.47;;;12.00;99.90;;;;;;4778332;30;20275;-95
2023/04/03 17:12:49;;;;;;;10.40;6.35;;;11.90;98.80;;;;;;4779486;30;20215;-95
2023/04/03 17:15:15;;;;;;;21.80;12.80;;;11.70;99.90;;;;;;4782040;30;20184;-92
2023/04/03 17:17:41;;;;;;;35.93;19.87;;;11.60;99.90;;;;;;4779217;30;20470;-95
2023/04/03 17:20:07;;;;;;;28.10;15.23;;;11.50;98.10;;;;;;4779735;30;20526;-96
2023/04/03 17:22:33;;;;;;;40.55;22.60;;;11.40;99.90;;;;;;4775691;30;20211;-96
2023/04/03 17:25:00;;;;;;;16.40;10.23;;;11.30;99.90;;;;;;4777077;30;20223;-94
2023/04/03 17:27:26;;;;;;;9.30;6.90;;;11.10;98.20;;;;;;4777070;30;20560;-96
2023/04/03 17:29:52;;;;;;;8.97;7.63;;;11.00;98.10;;;;;;4776331;30;20188;-95
2023/04/03 17:32:18;;;;;;;5.90;5.30;;;10.90;98.00;;;;;;4776674;30;20276;-94
2023/04/03 17:34:46;;;;;;;5.28;4.78;;;11.00;99.70;;;;;;4776591;30;20327;-96
2023/04/03 17:37:12;;;;;;;6.00;4.75;;;10.90;99.90;;;;;;4776947;30;20727;-94
2023/04/03 17:39:38;;;;;;;8.67;5.93;;;10.90;99.60;;;;;;4776414;30;20196;-94
2023/04/03 17:42:04;;;;;;;13.37;6.37;;;10.80;99.60;;;;;;4782725;30;20295;-95
2023/04/03 17:44:30;;;;;;;14.95;9.55;;;10.70;99.90;;;;;;4774144;30;20472;-94
2023/04/03 17:46:56;;;;;;;15.03;9.23;;;10.70;99.50;;;;;;4773342;30;20575;-95
2023/04/03 17:49:21;;;;;;;12.73;6.60;;;10.60;99.90;;;;;;4773527;30;20195;-95
2023/04/03 17:51:47;;;;;;;9.50;5.90;;;10.60;99.90;;;;;;4773445;30;20494;-94
2023/04/03 17:54:13;;;;;;;15.77;7.80;;;10.50;99.90;;;;;;4773081;30;20184;-96
2023/04/03 17:56:42;;;;;;;16.70;8.60;;;10.40;99.90;;;;;;4772785;30;20456;-96
2023/04/03 17:59:07;;;;;;;12.60;6.65;;;10.40;99.90;;;;;;4773298;30;20264;-94
2023/04/03 18:01:37;;;;;;;21.10;8.90;;;10.50;99.90;;;;;;4773208;30;20220;-94
2023/04/03 18:04:04;;;;;;;14.82;6.72;;;10.40;99.90;;;;;;4775470;30;20531;-96
2023/04/03 18:06:39;;;;;;;12.73;6.38;;;10.50;99.90;;;;;;4784087;30;20263;-94
2023/04/03 18:09:14;;;;;;;16.50;9.20;;;10.50;99.90;;;;;;4779902;30;20676;-96
2023/04/03 18:11:40;;;;;;;13.65;8.00;;;10.50;99.90;;;;;;4772922;30;20207;-96
2023/04/03 18:14:07;;;;;;;10.98;6.75;;;10.40;99.90;;;;;;4773085;30;20661;-96
2023/04/03 18:16:33;;;;;;;15.52;8.65;;;10.40;99.90;;;;;;4772702;30;20219;-96
2023/04/03 18:18:59;;;;;;;14.20;8.23;;;10.30;99.90;;;;;;4772743;30;20183;-94
2023/04/03 18:21:24;;;;;;;11.13;5.17;;;10.10;99.90;;;;;;4772919;30;20464;-96
2023/04/03 18:23:53;;;;;;;15.83;9.40;;;10.10;99.90;;;;;;4772829;30;20486;-96
2023/04/03 18:26:20;;;;;;;15.27;7.50;;;10.20;99.90;;;;;;4772575;30;20591;-93
2023/04/03 18:28:52;;;;;;;14.02;8.32;;;10.10;99.90;;;;;;4772400;30;20192;-96
2023/04/03 18:31:18;;;;;;;16.85;7.47;;;10.00;99.90;;;;;;4772628;30;20224;-96
2023/04/03 18:33:44;;;;;;;12.35;7.38;;;9.90;99.90;;;;;;4772283;30;20188;-96
2023/04/03 18:36:10;;;;;;;12.98;7.47;;;9.90;99.90;;;;;;4772318;30;20693;-96
2023/04/03 18:38:36;;;;;;;10.30;7.20;;;9.80;99.90;;;;;;4772399;30;20192;-94
2023/04/03 18:41:04;;;;;;;13.63;7.90;;;9.80;99.90;;;;;;4782445;30;20429;-94
2023/04/03 18:43:30;;;;;;;14.40;7.20;;;9.60;99.90;;;;;;4788547;30;20673;-94
2023/04/03 18:45:56;;;;;;;8.63;5.18;;;9.50;99.90;;;;;;4775026;30;20256;-95
2023/04/03 18:48:22;;;;;;;22.40;8.23;;;9.30;99.90;;;;;;4772188;30;20192;-94
2023/04/03 18:50:48;;;;;;;11.70;5.87;;;9.30;99.90;;;;;;4772471;30;20953;-94
2023/04/03 18:53:14;;;;;;;11.85;7.20;;;9.40;99.90;;;;;;4772668;30;20191;-96
2023/04/03 18:55:40;;;;;;;8.80;5.13;;;9.30;99.90;;;;;;4772590;30;20192;-93
2023/04/03 18:58:07;;;;;;;18.00;8.83;;;9.40;99.90;;;;;;4772725;30;20215;-96
2023/04/03 19:00:33;;;;;;;9.70;5.55;;;9.40;99.90;;;;;;4772322;30;20435;-96
2023/04/03 19:03:02;;;;;;;19.75;9.60;;;9.30;99.90;;;;;;4772225;30;20303;-94
2023/04/03 19:05:28;;;;;;;16.27;9.07;;;9.40;99.90;;;;;;4771950;30;20224;-94
2023/04/03 19:07:54;;;;;;;16.70;8.30;;;9.10;99.90;;;;;;4772005;30;20254;-93
2023/04/03 19:10:20;;;;;;;20.42;9.48;;;9.10;99.90;;;;;;4772636;30;20192;-96
2023/04/03 19:12:47;;;;;;;14.57;7.03;;;9.10;99.90;;;;;;4772662;30;20204;-96
2023/04/03 19:15:15;;;;;;;12.70;7.20;;;9.20;99.90;;;;;;4772328;30;20946;-96
2023/04/03 19:17:41;;;;;;;18.20;9.23;;;9.10;99.90;;;;;;4771793;30;20215;-95
2023/04/03 19:20:08;;;;;;;10.47;5.60;;;9.00;99.90;;;;;;4771535;30;20203;-94
2023/04/03 19:22:34;;;;;;;7.07;5.25;;;9.10;99.90;;;;;;4772386;30;20525;-96
2023/04/03 19:25:01;;;;;;;12.43;7.63;;;9.10;99.90;;;;;;4772529;30;20220;-94
2023/04/03 19:27:27;;;;;;;21.20;9.35;;;9.20;99.90;;;;;;4773745;30;20515;-95
2023/04/03 19:29:52;;;;;;;13.30;8.35;;;8.90;99.90;;;;;;4772544;30;20196;-94
2023/04/03 19:32:18;;;;;;;14.93;9.00;;;8.60;99.90;;;;;;4780713;30;20251;-94
2023/04/03 19:34:44;;;;;;;10.93;6.00;;;8.40;99.90;;;;;;4777313;30;20239;-95
2023/04/03 19:37:10;;;;;;;9.90;6.00;;;8.30;99.90;;;;;;4771399;30;20513;-94
2023/04/03 19:39:37;;;;;;;14.55;7.63;;;8.70;99.90;;;;;;4773374;30;20267;-95
2023/04/03 19:42:04;;;;;;;14.52;7.90;;;8.80;99.90;;;;;;4772737;30;20204;-96
2023/04/03 19:44:32;;;;;;;15.18;8.30;;;8.80;99.90;;;;;;4776189;30;20228;-96
2023/04/03 19:46:58;;;;;;;6.13;3.85;;;8.70;99.90;;;;;;4777989;30;20704;-96
2023/04/03 19:49:24;;;;;;;15.45;7.43;;;8.80;99.90;;;;;;4775153;30;20638;-92
2023/04/03 19:51:52;;;;;;;10.70;6.70;;;8.60;99.90;;;;;;4783824;30;20204;-93
2023/04/03 19:54:18;;;;;;;18.77;8.10;;;8.40;99.90;;;;;;4773890;30;20195;-94
2023/04/03 19:56:45;;;;;;;2.25;1.88;;;8.40;99.90;;;;;;4770901;30;20257;-94
2023/04/03 19:59:11;;;;;;;8.77;5.38;;;8.60;99.90;;;;;;4771262;30;20275;-96
2023/04/03 20:01:37;;;;;;;10.13;6.17;;;8.80;99.90;;;;;;4771128;30;20235;-94
2023/04/03 20:04:04;;;;;;;5.75;4.53;;;8.80;99.90;;;;;;4771016;30;20443;-96
2023/04/03 20:06:30;;;;;;;11.18;7.45;;;9.00;99.90;;;;;;4770712;30;20239;-96
2023/04/03 20:08:56;;;;;;;22.70;8.90;;;9.00;99.90;;;;;;4771430;30;20260;-96
2023/04/03 20:11:22;;;;;;;23.77;10.63;;;9.10;99.90;;;;;;4771041;30;20215;-95
2023/04/03 20:13:52;;;;;;;21.35;9.65;;;9.10;99.90;;;;;;4770966;30;20228;-96
2023/04/03 20:16:20;;;;;;;18.20;8.32;;;8.90;99.90;;;;;;4770962;30;20274;-93
2023/04/03 20:18:48;;;;;;;7.70;4.60;;;8.70;99.90;;;;;;4771457;30;20215;-93
2023/04/03 20:21:13;;;;;;;4.30;2.38;;;8.70;99.90;;;;;;4772068;30;20282;-96
2023/04/03 20:23:39;;;;;;;12.77;7.10;;;8.70;99.90;;;;;;4772174;30;20638;-96
2023/04/03 20:26:07;;;;;;;11.27;6.67;;;8.80;99.90;;;;;;4785513;30;20263;-95
2023/04/03 20:28:33;;;;;;;9.77;6.15;;;8.70;99.90;;;;;;4782500;30;20482;-96
2023/04/03 20:31:00;;;;;;;13.48;7.35;;;8.30;99.90;;;;;;4785497;30;20194;-96
2023/04/03 20:33:27;;;;;;;5.72;4.38;;;8.20;99.90;;;;;;4774698;30;20199;-96
2023/04/03 20:35:55;;;;;;;10.48;7.57;;;8.10;99.90;;;;;;4771248;30;20188;-96
2023/04/03 20:38:21;;;;;;;11.75;6.55;;;8.10;99.90;;;;;;4781123;30;20542;-96
2023/04/03 20:40:48;;;;;;;9.98;5.88;;;8.10;99.90;;;;;;4773947;30;20191;-96
2023/04/03 20:43:13;;;;;;;10.93;6.22;;;8.20;99.90;;;;;;4772541;30;20235;-96
2023/04/03 20:45:39;;;;;;;6.50;5.20;;;8.10;99.90;;;;;;4770598;30;20247;-94
2023/04/03 20:48:05;;;;;;;9.33;5.33;;;8.00;99.90;;;;;;4770754;30;20961;-93
2023/04/03 20:50:32;;;;;;;9.47;5.97;;;7.90;99.90;;;;;;4777321;30;20188;-95
2023/04/03 20:52:59;;;;;;;10.80;6.55;;;8.10;99.90;;;;;;4774822;30;20475;-94
2023/04/03 20:55:25;;;;;;;14.07;7.57;;;8.00;99.90;;;;;;4777153;30;20195;-93
2023/04/03 20:57:53;;;;;;;5.05;4.05;;;8.10;99.90;;;;;;4772472;30;20704;-93
2023/04/03 21:00:19;;;;;;;7.90;5.57;;;8.20;99.90;;;;;;4770806;30;20698;-94
2023/04/03 21:02:47;;;;;;;7.53;5.35;;;8.00;99.90;;;;;;4770339;30;20356;-92
2023/04/03 21:05:15;;;;;;;7.75;5.32;;;7.80;99.90;;;;;;4779196;30;20219;-93
2023/04/03 21:08:18;;;;;;;10.00;7.07;;;7.80;99.90;;;;;;4770388;30;20582;-96
2023/04/03 21:11:22;;;;;;;9.15;6.55;;;7.70;99.90;;;;;;4775503;30;20198;-94
2023/04/03 21:14:34;;;;;;;7.97;4.30;;;7.60;99.90;;;;;;4777017;30;20195;-96
2023/04/03 21:17:01;;;;;;;11.05;5.28;;;7.70;99.90;;;;;;4774921;30;20245;-96
2023/04/03 21:19:26;;;;;;;7.20;5.10;;;7.90;99.90;;;;;;4774179;30;20645;-94
2023/04/03 21:21:53;;;;;;;6.77;4.10;;;7.80;99.90;;;;;;4773649;30;20211;-94
2023/04/03 21:24:20;;;;;;;6.53;3.65;;;7.80;99.90;;;;;;4773713;30;20191;-94
2023/04/03 21:26:46;;;;;;;7.80;2.25;;;7.90;99.90;;;;;;4773826;30;20585;-94
2023/04/03 21:29:12;;;;;;;5.68;4.55;;;8.10;99.90;;;;;;4773791;30;20219;-93
2023/04/03 21:31:57;;;;;;;4.97;3.15;;;8.00;99.90;;;;;;4773811;30;20215;-96
2023/04/03 21:34:30;;;;;;;7.15;4.68;;;8.40;99.90;;;;;;4773655;30;20730;-96
2023/04/03 21:37:00;;;;;;;8.65;5.82;;;8.50;99.90;;;;;;4773674;30;20741;-96
2023/04/03 21:39:27;;;;;;;9.93;5.30;;;8.30;99.90;;;;;;4773529;30;20187;-96
2023/04/03 21:41:52;;;;;;;4.32;2.95;;;8.00;99.90;;;;;;4779374;30;20215;-93
2023/04/03 21:44:19;;;;;;;11.17;5.10;;;8.00;99.90;;;;;;4774504;30;20188;-93
2023/04/03 21:46:53;;;;;;;2.72;2.53;;;8.00;99.90;;;;;;4784121;30;20466;-96
2023/04/03 21:49:22;;;;;;;10.90;6.10;;;8.30;99.90;;;;;;4782250;30;20637;-96
2023/04/03 21:51:50;;;;;;;4.82;3.70;;;8.40;99.90;;;;;;4773277;30;20219;-93
2023/04/03 21:54:16;;;;;;;6.28;3.55;;;8.10;99.90;;;;;;4775457;30;20269;-96
2023/04/03 21:56:42;;;;;;;5.53;2.22;;;8.00;99.90;;;;;;4773210;30;20743;-96
2023/04/03 21:59:08;;;;;;;8.65;3.78;;;8.00;99.90;;;;;;4773156;30;20575;-94
2023/04/03 22:01:34;;;;;;;6.10;4.63;;;8.10;99.90;;;;;;4772935;30;20242;-96
2023/04/03 22:04:01;;;;;;;7.90;3.58;;;8.20;99.90;;;;;;4773107;30;20188;-93
2023/04/03 22:06:27;;;;;;;7.15;4.95;;;8.00;99.90;;;;;;4773024;30;20248;-94
2023/04/03 22:08:55;;;;;;;9.35;5.32;;;8.20;99.90;;;;;;4773018;30;20192;-94
2023/04/03 22:11:23;;;;;;;3.30;2.75;;;8.10;99.90;;;;;;4772726;30;20215;-94
2023/04/03 22:13:51;;;;;;;6.45;4.47;;;8.10;99.90;;;;;;4772894;30;20188;-96
2023/04/03 22:16:17;;;;;;;8.68;4.60;;;8.10;99.90;;;;;;4773163;30;20670;-96
2023/04/03 22:18:43;;;;;;;5.35;4.13;;;7.70;99.90;;;;;;4775181;30;20326;-96
2023/04/03 22:21:09;;;;;;;6.43;3.90;;;7.40;99.90;;;;;;4776281;30;20282;-93
2023/04/03 22:23:35;;;;;;;5.70;4.27;;;7.30;99.90;;;;;;4776744;30;20237;-94
2023/04/03 22:26:09;;;;;;;6.20;4.50;;;7.30;99.90;;;;;;4773159;30;20236;-94
2023/04/03 22:28:43;;;;;;;8.02;5.32;;;7.40;99.90;;;;;;4774759;30;20421;-95
2023/04/03 22:31:12;;;;;;;6.28;4.65;;;7.20;99.90;;;;;;4774176;30;20212;-94
2023/04/03 22:33:39;;;;;;;7.13;4.38;;;7.20;99.90;;;;;;4775031;30;20172;-93
2023/04/03 22:36:07;;;;;;;6.18;4.80;;;6.90;99.90;;;;;;4779377;30;20223;-96
2023/04/03 22:38:33;;;;;;;7.45;4.72;;;6.80;99.90;;;;;;4780905;30;20217;-94
2023/04/03 22:41:01;;;;;;;4.75;4.22;;;6.80;99.90;;;;;;4780505;30;20196;-94
2023/04/03 22:43:28;;;;;;;4.82;4.10;;;6.70;99.90;;;;;;4772927;30;20650;-93
2023/04/03 22:45:55;;;;;;;4.45;3.92;;;6.70;99.90;;;;;;4772398;30;20231;-93
2023/04/03 22:48:22;;;;;;;2.22;2.05;;;6.80;99.90;;;;;;4772336;30;20191;-94
2023/04/03 22:50:48;;;;;;;4.45;3.95;;;6.90;99.90;;;;;;4772148;30;20200;-96
2023/04/03 22:53:14;;;;;;;4.85;4.00;;;7.20;99.90;;;;;;4773650;30;20180;-95
2023/04/03 22:55:40;;;;;;;3.65;3.15;;;7.40;99.90;;;;;;4772261;30;20206;-96
2023/04/03 22:58:07;;;;;;;7.93;4.30;;;7.30;99.90;;;;;;4772849;30;20208;-95
2023/04/03 23:00:32;;;;;;;4.28;3.88;;;7.10;99.90;;;;;;4772111;30;20307;-94
2023/04/03 23:03:00;;;;;;;6.10;4.33;;;7.10;99.90;;;;;;4772341;30;20705;-94
2023/04/03 23:05:28;;;;;;;6.93;4.60;;;7.10;99.90;;;;;;4772542;30;20552;-93
2023/04/03 23:07:54;;;;;;;4.68;4.03;;;7.00;99.90;;;;;;4772013;30;20246;-93
2023/04/03 23:10:21;;;;;;;4.03;3.33;;;7.30;99.90;;;;;;4772437;30;20642;-94
2023/04/03 23:12:46;;;;;;;4.90;3.63;;;7.30;99.90;;;;;;4772091;30;20248;-94
2023/04/03 23:15:13;;;;;;;7.97;4.73;;;7.40;99.90;;;;;;4774915;30;20263;-93
2023/04/03 23:17:39;;;;;;;7.25;4.50;;;7.50;99.90;;;;;;4776463;30;20563;-94
2023/04/03 23:20:06;;;;;;;7.93;4.60;;;7.40;99.90;;;;;;4777584;30;20195;-94
2023/04/03 23:22:32;;;;;;;4.28;3.38;;;7.60;99.90;;;;;;4787367;30;20195;-93
2023/04/03 23:24:57;;;;;;;5.13;4.10;;;7.60;99.90;;;;;;4776509;30;20242;-94
2023/04/03 23:27:23;;;;;;;11.67;5.20;;;7.60;99.90;;;;;;4771733;30;20204;-96
2023/04/03 23:29:49;;;;;;;6.07;4.20;;;7.50;99.90;;;;;;4771221;30;20603;-94
2023/04/03 23:32:15;;;;;;;2.10;1.87;;;7.50;99.90;;;;;;4771596;30;20452;-93
2023/04/03 23:34:41;;;;;;;8.43;4.00;;;7.40;99.90;;;;;;4771864;30;20191;-95
2023/04/03 23:37:11;;;;;;;4.67;3.97;;;7.50;99.90;;;;;;4771443;30;20440;-96
2023/04/03 23:39:36;;;;;;;9.77;5.00;;;7.60;99.90;;;;;;4770864;30;20436;-93
2023/04/03 23:42:04;;;;;;;6.80;4.33;;;7.60;99.90;;;;;;4771155;30;20212;-96
2023/04/03 23:44:30;;;;;;;9.43;4.18;;;7.50;99.90;;;;;;4771188;30;20211;-96
2023/04/03 23:46:57;;;;;;;8.18;4.20;;;7.50;99.90;;;;;;4771919;30;20228;-94
2023/04/03 23:49:23;;;;;;;4.85;3.75;;;7.40;99.90;;;;;;4771597;30;20190;-96
2023/04/03 23:51:49;;;;;;;6.87;3.60;;;7.40;99.90;;;;;;4771340;30;20215;-96
2023/04/03 23:54:15;;;;;;;3.90;3.20;;;7.60;99.90;;;;;;4771116;30;20428;-94
2023/04/03 23:56:41;;;;;;;6.80;4.25;;;7.90;99.90;;;;;;4771957;30;20207;-96
2023/04/03 23:59:07;;;;;;;9.10;3.67;;;7.60;99.90;;;;;;4772003;30;20199;-94
